Time;durP1;ratioP1;P1;durP2;ratioP2;P2;SDS_P1;SDS_P2;PMS_P1;PMS_P2;Temp;Humidity;BMP_temperature;BMP_pressure;BME280_temperature;BME280_humidity;BME280_pressure;Samples;Min_cycle;Max_cycle;Signal;HPM_P1;HPM_P2
2023/04/12 00:06:02;;;;;;;6.80;4.30;;;;;;;6.20;83.84;98041.45;435707;1251;107144;-41
2023/04/12 00:16:14;;;;;;;5.40;3.60;;;;;;;6.16;83.45;98048.41;435443;1251;99240;-40
2023/04/12 00:36:28;;;;;;;7.90;4.50;;;;;;;6.04;83.85;98041.69;435767;1252;108628;-42
2023/04/12 00:46:36;;;;;;;7.10;4.80;;;;;;;5.90;84.09;98042.55;435708;1249;99218;-40
2023/04/12 00:56:44;;;;;;;17.20;5.00;;;;;;;5.89;84.03;98035.77;435704;1253;107005;-40
2023/04/12 01:06:54;;;;;;;7.60;5.10;;;;;;;5.94;83.91;98030.20;435538;1253;98009;-41
2023/04/12 01:17:01;;;;;;;;;;;;;;;5.92;83.81;98028.13;436492;1246;110018;-39
2023/04/12 01:37:20;;;;;;;10.00;3.80;;;;;;;5.89;83.91;98034.67;436470;1253;98001;-40
2023/04/12 01:47:27;;;;;;;;;;;;;;;5.89;84.00;98033.31;436607;1251;107349;-40
2023/04/12 01:57:36;;;;;;;14.30;7.10;;;;;;;5.70;84.15;98025.13;436541;1247;99762;-42
2023/04/12 02:07:41;;;;;;;7.20;5.20;;;;;;;5.62;84.17;98021.98;436392;1261;110972;-42
2023/04/12 02:17:47;;;;;;;8.60;5.10;;;;;;;5.59;84.31;98016.86;436204;1253;107819;-41
2023/04/12 02:27:54;;;;;;;5.70;5.20;;;;;;;5.62;84.27;98013.48;436343;1253;99240;-40
2023/04/12 02:38:02;;;;;;;10.20;6.10;;;;;;;5.62;84.20;98005.82;436200;1254;108359;-41
2023/04/12 02:48:10;;;;;;;12.00;6.70;;;;;;;5.57;84.30;98008.03;436360;1248;99088;-40
2023/04/12 02:58:17;;;;;;;11.20;7.20;;;;;;;5.46;84.43;97998.83;436358;1254;111329;-42
2023/04/12 03:08:25;;;;;;;15.10;9.80;;;;;;;5.41;84.34;98002.09;436523;1253;108354;-43
2023/04/12 03:18:32;;;;;;;20.70;11.70;;;;;;;5.33;84.38;98006.02;436339;1252;99228;-41
2023/04/12 03:28:41;;;;;;;31.60;18.90;;;;;;;5.31;84.52;98003.57;436307;1248;108025;-40
2023/04/12 03:38:49;;;;;;;24.70;11.60;;;;;;;5.33;84.47;97998.42;436439;1261;97979;-41
2023/04/12 03:48:55;;;;;;;12.50;8.90;;;;;;;5.30;84.59;98003.69;435940;1253;419872;-40
2023/04/12 03:59:02;;;;;;;10.50;6.70;;;;;;;5.22;84.10;98011.65;436169;1261;108365;-40
2023/04/12 04:09:09;;;;;;;20.20;11.20;;;;;;;5.23;84.40;98009.83;436292;1254;99100;-41
2023/04/12 04:19:16;;;;;;;15.70;8.90;;;;;;;5.23;84.22;98002.04;436320;1261;107115;-41
2023/04/12 04:29:24;;;;;;;18.50;10.60;;;;;;;5.09;84.34;98009.05;436339;1254;99237;-40
2023/04/12 04:39:31;;;;;;;19.70;12.90;;;;;;;5.08;84.38;98006.11;436410;1257;111170;-40
2023/04/12 04:49:40;;;;;;;15.10;9.60;;;;;;;5.07;84.34;98004.66;436195;1261;108188;-40
2023/04/12 04:59:47;;;;;;;25.00;13.20;;;;;;;5.13;84.48;98011.89;436379;1261;99217;-39
2023/04/12 05:09:54;;;;;;;21.20;13.70;;;;;;;5.15;84.53;98023.11;436433;1251;108745;-40
2023/04/12 05:19:59;;;;;;;30.30;15.80;;;;;;;5.11;84.47;98025.56;436557;1248;100358;-42
2023/04/12 05:30:10;;;;;;;29.70;14.10;;;;;;;5.06;84.34;98027.80;436342;1253;112222;-41
2023/04/12 05:40:17;;;;;;;14.20;11.00;;;;;;;5.26;84.43;98029.40;436490;1248;107332;-40
2023/04/12 05:50:24;;;;;;;11.10;9.00;;;;;;;5.40;84.37;98035.68;436173;1251;98833;-40
2023/04/12 06:00:32;;;;;;;18.00;10.40;;;;;;;5.47;84.25;98032.27;436327;1251;109305;-40
2023/04/12 06:10:39;;;;;;;22.80;13.90;;;;;;;5.55;84.24;98030.12;436379;1248;98830;-40
2023/04/12 06:41:00;;;;;;;23.30;13.20;;;;;;;5.48;84.37;98028.80;436544;1251;99190;-39
2023/04/12 06:51:08;;;;;;;18.10;12.30;;;;;;;5.66;84.64;98019.23;436588;1248;106602;-41
2023/04/12 07:01:16;;;;;;;15.40;10.20;;;;;;;5.89;84.51;98011.84;436422;1248;99362;-40
2023/04/12 07:11:24;;;;;;;18.80;10.60;;;;;;;6.12;84.55;98011.23;436259;1248;111374;-40
2023/04/12 07:21:31;;;;;;;14.90;9.80;;;;;;;6.33;84.53;98016.31;436410;1248;108046;-40
2023/04/12 07:31:37;;;;;;;20.60;12.10;;;;;;;6.61;84.58;98009.43;436357;1248;101595;-40
2023/04/12 07:51:50;;;;;;;17.00;10.40;;;;;;;7.52;84.42;97990.20;436565;1251;98839;-40
2023/04/12 08:01:58;;;;;;;19.60;10.30;;;;;;;7.93;84.23;97989.36;436414;1251;112086;-41
2023/04/12 08:12:04;;;;;;;11.50;8.70;;;;;;;8.24;83.85;97993.64;436506;1251;106914;-40
2023/04/12 08:22:11;;;;;;;10.60;7.40;;;;;;;8.12;83.63;97998.64;436514;1253;99218;-41
2023/04/12 08:32:20;;;;;;;9.60;7.30;;;;;;;8.33;83.36;97997.59;436348;1251;108453;-41
2023/04/12 08:42:28;;;;;;;10.80;8.40;;;;;;;8.44;82.60;97990.45;436379;1248;99139;-41
2023/04/12 08:52:36;;;;;;;15.50;11.40;;;;;;;8.41;82.45;97990.91;436521;1261;110292;-40
2023/04/12 09:02:47;;;;;;;14.50;9.50;;;;;;;8.59;82.26;97981.14;436321;1251;106906;-41
2023/04/12 09:12:55;;;;;;;9.90;8.10;;;;;;;9.04;82.06;97978.17;436481;1251;98046;-41
2023/04/12 09:43:15;;;;;;;;;;;;;;;10.51;80.22;97943.94;436317;1251;111770;-41
2023/04/12 09:53:22;;;;;;;9.00;6.70;;;;;;;10.86;78.63;97942.14;436372;1248;106561;-41
2023/04/12 10:03:29;;;;;;;8.10;5.70;;;;;;;10.70;78.20;97928.31;436365;1251;99221;-41
2023/04/12 10:13:39;;;;;;;5.20;4.70;;;;;;;10.70;77.40;97916.94;436446;1251;106928;-41
2023/04/12 10:23:44;;;;;;;5.60;4.50;;;;;;;10.62;76.69;97908.59;436599;1247;98402;-41
2023/04/12 10:33:51;;;;;;;7.40;5.90;;;;;;;11.03;76.82;97897.96;436425;1251;111681;-42
2023/04/12 10:44:23;;;;;;;7.10;6.10;;;;;;;11.32;75.48;97900.50;436428;1251;107725;-42
2023/04/12 11:15:15;;;;;;;6.40;5.20;;;;;;;11.58;74.50;97873.14;436551;1251;97969;-41
2023/04/12 11:25:23;;;;;;;6.80;4.70;;;;;;;12.21;73.84;97866.31;436445;1247;110350;-41
2023/04/12 11:35:30;;;;;;;7.00;4.80;;;;;;;12.51;72.88;97847.77;436652;1254;107591;-40
2023/04/12 11:45:36;;;;;;;8.60;4.50;;;;;;;12.33;72.10;97837.20;436348;1251;99234;-41
2023/04/12 11:55:47;;;;;;;5.50;4.20;;;;;;;12.44;71.66;97830.30;436466;1250;109765;-41
2023/04/12 12:05:55;;;;;;;6.80;4.70;;;;;;;12.47;70.81;97816.78;436385;1247;99339;-40
2023/04/12 12:16:06;;;;;;;6.80;5.10;;;;;;;12.69;69.34;97801.98;436623;1247;111046;-41
2023/04/12 12:26:21;;;;;;;7.00;5.20;;;;;;;12.60;68.34;97785.91;436426;1247;107641;-41
2023/04/12 12:36:31;;;;;;;3.60;3.30;;;;;;;12.82;67.71;97775.68;436906;1247;99308;-40
2023/04/12 12:46:37;;;;;;;4.30;4.00;;;;;;;12.66;66.06;97767.55;436480;1251;107793;-40
2023/04/12 12:56:46;;;;;;;;;;;;;;;12.88;66.03;97752.97;436269;1251;99238;-41
2023/04/12 13:06:53;;;;;;;3.50;3.20;;;;;;;12.90;65.73;97746.70;436455;1247;112986;-42
2023/04/12 13:17:00;;;;;;;6.00;3.00;;;;;;;12.74;64.19;97739.81;436371;1251;108342;-41
2023/04/12 13:27:07;;;;;;;3.40;3.10;;;;;;;12.78;62.55;97729.58;436377;1247;99256;-40
2023/04/12 13:37:13;;;;;;;7.50;3.40;;;;;;;12.92;62.35;97720.02;436431;1251;108000;-42
2023/04/12 13:47:19;;;;;;;5.00;3.60;;;;;;;12.86;60.11;97704.48;436488;1247;99212;-40
2023/04/12 13:57:26;;;;;;;5.80;3.80;;;;;;;13.01;59.27;97696.39;436364;1251;111554;-41
2023/04/12 14:07:33;;;;;;;3.50;3.10;;;;;;;13.20;60.71;97690.38;436545;1253;108775;-40
2023/04/12 14:17:41;;;;;;;10.80;4.20;;;;;;;13.07;61.64;97689.96;436404;1247;99249;-40
2023/04/12 14:27:47;;;;;;;2.80;2.00;;;;;;;12.58;60.81;97681.92;436476;1251;107780;-42
2023/04/12 14:37:57;;;;;;;4.60;2.60;;;;;;;12.35;61.14;97677.84;436320;1254;99314;-41
2023/04/12 14:48:03;;;;;;;5.80;3.20;;;;;;;12.17;60.92;97678.72;436519;1251;110849;-41
2023/04/12 14:58:10;;;;;;;3.80;2.20;;;;;;;12.14;60.57;97677.02;436495;1251;106766;-40
2023/04/12 15:08:18;;;;;;;4.90;3.40;;;;;;;11.77;59.65;97665.33;436487;1247;99221;-40
2023/04/12 15:18:25;;;;;;;6.00;4.10;;;;;;;11.78;59.77;97658.86;436369;1248;107709;-41
2023/04/12 15:28:33;;;;;;;4.10;3.70;;;;;;;11.72;58.81;97655.92;436430;1247;99220;-42
2023/04/12 15:48:48;;;;;;;6.80;2.90;;;;;;;11.40;59.04;97655.58;436062;1251;458950;-40
2023/04/12 15:58:56;;;;;;;5.80;4.20;;;;;;;11.21;59.19;97652.33;436382;1247;99842;-41
2023/04/12 16:09:05;;;;;;;4.60;3.50;;;;;;;11.16;59.48;97649.23;436499;1251;107642;-40
2023/04/12 16:19:12;;;;;;;10.20;4.10;;;;;;;11.09;59.36;97647.23;436463;1251;99223;-40
2023/04/12 16:29:19;;;;;;;9.50;5.10;;;;;;;11.04;59.14;97645.23;436558;1247;111710;-41
2023/04/12 16:39:28;;;;;;;8.90;4.00;;;;;;;10.97;58.98;97634.58;436341;1251;107686;-40
2023/04/12 16:49:35;;;;;;;6.20;4.10;;;;;;;10.88;59.24;97627.33;436528;1251;99233;-41
2023/04/12 16:59:42;;;;;;;9.90;5.20;;;;;;;10.72;59.47;97618.60;436417;1251;108499;-40
2023/04/12 17:09:50;;;;;;;12.40;6.50;;;;;;;10.48;59.50;97615.38;436259;1253;101487;-43
2023/04/12 17:19:57;;;;;;;12.30;6.30;;;;;;;10.22;59.44;97616.31;436503;1254;111458;-39
2023/04/12 17:30:03;;;;;;;12.50;6.80;;;;;;;9.91;60.12;97617.09;436304;1251;107905;-41
2023/04/12 17:40:11;;;;;;;17.50;9.70;;;;;;;9.50;60.85;97623.84;436394;1247;99246;-40
2023/04/12 17:50:18;;;;;;;22.20;12.70;;;;;;;9.13;61.80;97627.14;436491;1253;105657;-41
2023/04/12 18:00:27;;;;;;;19.60;10.80;;;;;;;8.91;62.77;97631.33;436283;1247;98322;-40
2023/04/12 18:20:41;;;;;;;26.60;16.00;;;;;;;8.56;64.33;97633.63;436357;1253;107590;-41
2023/04/12 18:30:48;;;;;;;25.70;16.30;;;;;;;8.31;64.87;97630.47;436416;1253;99262;-40
2023/04/12 18:40:55;;;;;;;25.60;17.00;;;;;;;8.03;65.41;97626.15;436498;1251;107774;-40
2023/04/12 18:51:03;;;;;;;30.70;19.90;;;;;;;7.82;66.00;97624.05;436499;1263;97989;-42
2023/04/12 19:01:11;;;;;;;33.50;20.50;;;;;;;7.62;66.53;97624.59;436481;1255;115597;-41
2023/04/12 19:11:17;;;;;;;43.10;25.10;;;;;;;7.50;66.96;97621.77;436457;1251;107432;-42
2023/04/12 19:21:25;;;;;;;34.00;20.50;;;;;;;7.42;67.54;97621.05;436267;1253;98037;-40
2023/04/12 19:31:33;;;;;;;36.50;21.40;;;;;;;7.30;67.87;97615.02;436521;1251;107970;-40
2023/04/12 19:41:42;;;;;;;54.70;34.20;;;;;;;7.10;68.37;97619.30;436424;1252;99221;-41
2023/04/12 20:01:57;;;;;;;27.70;16.80;;;;;;;6.71;69.13;97622.84;436931;1252;112120;-40
2023/04/12 20:12:06;;;;;;;27.50;15.40;;;;;;;6.67;69.64;97615.92;436505;1261;99250;-41
2023/04/12 20:22:13;;;;;;;25.80;16.20;;;;;;;6.64;70.16;97612.86;436381;1253;111415;-40
2023/04/12 20:32:19;;;;;;;30.50;17.70;;;;;;;6.55;70.46;97617.33;436349;1247;108479;-41
2023/04/12 20:42:26;;;;;;;38.60;22.90;;;;;;;6.39;70.72;97619.59;436414;1253;99212;-41
2023/04/12 20:52:33;;;;;;;44.60;26.30;;;;;;;6.16;71.19;97613.33;436694;1253;107146;-40
2023/04/12 21:02:42;;;;;;;38.80;21.40;;;;;;;6.00;71.52;97606.79;436513;1252;99041;-42
2023/04/12 21:22:56;;;;;;;37.00;22.70;;;;;;;5.89;72.49;97592.80;436484;1253;108812;-41
2023/04/12 21:33:04;;;;;;;33.20;21.60;;;;;;;5.85;72.98;97583.40;436327;1248;99205;-41
2023/04/12 21:43:10;;;;;;;39.80;20.30;;;;;;;5.84;73.58;97572.52;436454;1247;108003;-40
2023/04/12 21:53:17;;;;;;;48.50;27.60;;;;;;;5.79;74.14;97571.36;436796;1252;99237;-42
2023/04/12 22:03:24;;;;;;;47.30;28.40;;;;;;;5.69;74.27;97568.95;436514;1253;111441;-40
2023/04/12 22:13:33;;;;;;;36.20;22.30;;;;;;;5.66;74.47;97560.41;436352;1248;108712;-41
2023/04/12 22:23:39;;;;;;;31.10;19.90;;;;;;;5.64;74.58;97563.77;436346;1251;99301;-40
2023/04/12 22:33:47;;;;;;;42.80;22.70;;;;;;;5.56;74.74;97560.63;436534;1253;107469;-40
2023/04/12 22:54:05;;;;;;;32.10;22.10;;;;;;;5.25;74.97;97517.08;436489;1261;112936;-42
2023/04/12 23:04:13;;;;;;;31.80;18.60;;;;;;;5.25;75.44;97498.45;436626;1248;106833;-41
2023/04/12 23:14:21;;;;;;;34.30;20.30;;;;;;;5.35;75.69;97494.26;436572;1253;99231;-42
2023/04/12 23:24:29;;;;;;;39.80;23.70;;;;;;;5.37;75.63;97491.82;436360;1253;107372;-43
2023/04/12 23:34:36;;;;;;;47.00;26.30;;;;;;;5.29;75.58;97482.50;436439;1253;99253;-41
2023/04/12 23:44:45;;;;;;;42.10;23.70;;;;;;;5.32;75.96;97477.56;436235;1254;110944;-41
2023/04/12 23:54:52;;;;;;;28.80;18.10;;;;;;;5.22;75.51;97462.80;436644;1261;109005;-41
